Aeroporto :
LOGIN :

Iscrizione | Disclaimer

   EN    FR    IT 

 










Sommario :    VFR   VFR Marginale   IFR   IFR Intensivo   IFR Molto Intensivo
Visibilità : 
Base nubi : 
>= 8 km
>= 3000ft
5 / 8 km
1000 / 3000 ft
1500m / 5 km
500 / 1000 ft
800 / 1500m
200 / 500 ft
< 800m
< 200 ft
Simboli :   Temporali  Nebbia  Neve Forte  Precipitazioni Forti  Vento > 20 kt
SIGMETs :   Varie  Temporali  Ghiacco  Turbolenza  Onda orograficha  Ceneri Vulcaniche






- Altitudine del aeroporto : 15 ft
- Codice IATA : BHD


EGAC - George Best Belfast City

ULTIMO METAR :
  • 101120Z AUTO 31011KT 280V340 9999 FEW037/// 16/08 Q1020

METARs OBSOLETI :
  • 101050Z AUTO 33009KT 9999 FEW049/// 15/09 Q1020
  • 101020Z AUTO 29007KT 260V320 9999 FEW039/// 14/10 Q1020
  • 100950Z AUTO 27011KT 9999 SCT029/// SCT037/// BKN049/// 13/09 Q1020
  • 100920Z AUTO 31011KT 280V350 9999 FEW026/// SCT031/// 15/09 Q1019
  • 100850Z AUTO 32009KT 290V360 9999 BKN047/// 14/08 Q1019

TAF TAF EGAC
Valido dal 10 a 09 ore il 10 a 18 ore UTC


100800Z 1009/1018 31012KT 9999 FEW020 SCT035
PROB40
TEMPO 1010/1018 6000 SHRA
ATIS : +44 02890 935 124



MetMap, La meteo Aeronautica in un colpo d'occhio ! - Copyright ORBIFLY Dicembre 2007 - Disclaimer

ORBIFLY MET'MAP TEAM :

Programmazione e sviluppo : Alexandra Zaïnal
Concezione : Baudouin d'Aumeries
Aiuto per la programmazione : Marc-Olivier Méhu
Supporto tecnico e logistico : Manuel Goepfert
Aiuto per la traduzione : Arnaldo La Scala

Contatto : metmap@orbifly.com




FONTI E CREDITI :

   NOAA